createdAt,value
2023-02-04T00:01:32.155Z,1.65
2023-02-04T00:06:35.562Z,1.62
2023-02-04T00:11:40.304Z,1.54
2023-02-04T00:16:43.642Z,1.61
2023-02-04T00:21:47.099Z,1.67
2023-02-04T00:26:51.847Z,1.69
2023-02-04T00:31:55.305Z,1.64
2023-02-04T00:36:58.679Z,1.75
2023-02-04T00:42:03.549Z,1.78
2023-02-04T00:47:06.831Z,1.78
2023-02-04T00:52:10.356Z,1.38
2023-02-04T00:57:15.218Z,1.39
2023-02-04T01:02:18.778Z,1.44
2023-02-04T01:07:22.321Z,1.31
2023-02-04T01:12:28.812Z,1.36
2023-02-04T01:17:32.645Z,1.25
2023-02-04T01:22:36.401Z,1.23
2023-02-04T01:27:41.224Z,1.39
2023-02-04T01:32:44.416Z,1.68
2023-02-04T01:37:47.721Z,1.55
2023-02-04T01:42:52.901Z,1.65
2023-02-04T01:47:56.563Z,1.69
2023-02-04T01:53:00.671Z,1.61
2023-02-04T01:58:05.489Z,1.73
2023-02-04T02:03:11.124Z,1.80
2023-02-04T02:08:15.977Z,1.92
2023-02-04T02:13:20.667Z,2.13
2023-02-04T02:18:25.525Z,1.96
2023-02-04T02:23:34.437Z,2.04
2023-02-04T02:28:39.328Z,2.01
2023-02-04T02:33:42.635Z,2.07
2023-02-04T02:38:46.175Z,1.98
2023-02-04T02:43:50.914Z,2.02
2023-02-04T02:48:54.278Z,1.92
2023-02-04T02:53:57.945Z,1.86
2023-02-04T02:59:14.753Z,1.77
2023-02-04T03:04:20.383Z,1.56
2023-02-04T03:09:25.961Z,1.46
2023-02-04T03:14:31.134Z,1.27
2023-02-04T03:19:36.554Z,1.25
2023-02-04T03:24:40.328Z,1.23
2023-02-04T03:29:46.868Z,1.11
2023-02-04T03:34:50.455Z,1.04
2023-02-04T03:39:53.942Z,1.15
2023-02-04T03:44:58.814Z,1.19
2023-02-04T03:50:01.944Z,1.21
2023-02-04T03:55:06.983Z,1.11
2023-02-04T04:00:14.829Z,0.99
2023-02-04T04:05:18.473Z,0.86
2023-02-04T04:10:21.960Z,0.82
2023-02-04T04:15:26.776Z,0.82
2023-02-04T04:20:30.462Z,0.60
2023-02-04T04:25:34.400Z,0.63
2023-02-04T04:30:39.271Z,0.68
2023-02-04T04:35:42.356Z,0.67
2023-02-04T04:40:45.614Z,0.55
2023-02-04T04:45:50.333Z,0.44
2023-02-04T04:50:53.800Z,0.51
2023-02-04T04:55:57.168Z,0.55
2023-02-04T05:01:01.968Z,0.57
2023-02-04T05:06:05.215Z,0.68
2023-02-04T05:11:08.492Z,0.46
2023-02-04T05:16:13.492Z,0.33
2023-02-04T05:21:16.928Z,0.12
2023-02-04T05:26:29.942Z,0.07
2023-02-04T05:31:35.805Z,0.07
2023-02-04T05:36:39.229Z,-0.09
2023-02-04T05:41:42.707Z,-0.12
2023-02-04T05:46:47.455Z,-0.12
2023-02-04T05:51:50.919Z,0.20
2023-02-04T05:56:54.379Z,0.53
2023-02-04T06:01:59.150Z,0.83
2023-02-04T06:07:03.454Z,1.14
2023-02-04T06:12:07.281Z,1.33
2023-02-04T06:17:12.033Z,1.61
2023-02-04T06:22:15.501Z,1.76
2023-02-04T06:27:23.418Z,2.40
2023-02-04T06:32:28.593Z,2.39
2023-02-04T06:37:31.926Z,2.05
2023-02-04T06:42:35.523Z,1.94
2023-02-04T06:47:40.534Z,2.37
2023-02-04T06:52:43.882Z,2.68
2023-02-04T06:57:47.477Z,2.90
2023-02-04T07:02:53.008Z,3.04
2023-02-04T07:07:56.737Z,3.15
2023-02-04T07:13:00.132Z,3.78
2023-02-04T07:18:05.508Z,4.08
2023-02-04T07:23:08.813Z,3.92
2023-02-04T07:28:12.426Z,3.93
2023-02-04T07:33:17.225Z,4.59
2023-02-04T07:38:20.888Z,4.34
2023-02-04T07:43:24.269Z,3.95
2023-02-04T07:48:29.258Z,3.98
2023-02-04T07:53:32.351Z,4.01
2023-02-04T07:58:36.026Z,4.22
2023-02-04T08:03:41.860Z,4.21
2023-02-04T08:08:45.493Z,4.03
2023-02-04T08:13:48.958Z,4.18
2023-02-04T08:18:53.733Z,4.51
2023-02-04T08:23:57.122Z,4.56
2023-02-04T08:29:00.707Z,4.46
2023-02-04T08:34:06.424Z,4.21
2023-02-04T08:39:10.035Z,3.82
2023-02-04T08:44:13.566Z,4.03
2023-02-04T08:49:18.555Z,4.22
2023-02-04T08:54:21.736Z,4.26
2023-02-04T08:59:26.376Z,4.05
2023-02-04T09:04:32.058Z,4.00
2023-02-04T09:09:35.661Z,4.00
2023-02-04T09:14:39.203Z,3.68
2023-02-04T09:19:44.180Z,3.93
2023-02-04T09:24:47.457Z,4.17
2023-02-04T09:29:51.004Z,3.92
2023-02-04T09:34:55.916Z,3.95
2023-02-04T09:39:59.192Z,4.30
2023-02-04T09:45:03.761Z,4.37
2023-02-04T09:50:14.804Z,4.38
2023-02-04T09:55:20.779Z,3.98
2023-02-04T10:00:26.580Z,3.92
2023-02-04T10:05:33.526Z,3.88
2023-02-04T10:10:37.158Z,3.71
2023-02-04T10:15:40.635Z,3.30
2023-02-04T10:20:45.429Z,3.40
2023-02-04T10:25:48.787Z,3.33
2023-02-04T10:30:52.534Z,3.41
2023-02-04T10:35:58.722Z,3.44
2023-02-04T10:41:03.136Z,3.53
2023-02-04T10:46:06.731Z,3.47
2023-02-04T10:51:14.702Z,3.41
2023-02-04T10:56:21.864Z,3.21
2023-02-04T11:01:30.088Z,3.31
2023-02-04T11:06:35.093Z,3.45
2023-02-04T11:11:38.932Z,3.60
2023-02-04T11:16:49.897Z,3.41
2023-02-04T11:22:05.704Z,3.49
2023-02-04T11:27:22.431Z,3.55
2023-02-04T11:32:33.260Z,3.58
2023-02-04T11:37:40.919Z,3.40
2023-02-04T11:42:44.243Z,3.47
2023-02-04T11:47:48.672Z,3.38
2023-02-04T11:52:55.453Z,3.41
2023-02-04T11:57:59.701Z,3.27
2023-02-04T12:03:06.398Z,3.22
2023-02-04T12:08:29.163Z,3.21
2023-02-04T12:13:33.669Z,3.10
2023-02-04T12:18:37.018Z,2.86
2023-02-04T12:23:43.294Z,2.95
2023-02-04T12:28:46.856Z,2.87
2023-02-04T12:33:50.402Z,2.76
2023-02-04T12:38:55.754Z,2.59
2023-02-04T12:44:01.518Z,2.68
2023-02-04T12:49:05.207Z,2.56
2023-02-04T12:54:10.192Z,2.51
2023-02-04T12:59:13.755Z,2.42
2023-02-04T13:04:17.220Z,2.38
2023-02-04T13:09:22.262Z,2.41
2023-02-04T13:14:25.739Z,2.28
2023-02-04T13:19:29.356Z,2.20
2023-02-04T13:24:34.112Z,2.25
2023-02-04T13:29:37.773Z,2.20
2023-02-04T13:34:41.191Z,2.22
2023-02-04T13:39:46.157Z,2.28
2023-02-04T13:44:49.310Z,2.15
2023-02-04T13:49:53.142Z,2.14
2023-02-04T13:54:58.074Z,2.13
2023-02-04T14:00:01.467Z,2.13
2023-02-04T14:05:05.319Z,1.85
2023-02-04T14:10:11.028Z,1.78
2023-02-04T14:15:14.470Z,1.79
2023-02-04T14:20:18.015Z,1.76
2023-02-04T14:25:23.579Z,1.82
2023-02-04T14:30:29.804Z,1.80
2023-02-04T14:35:33.472Z,1.79
2023-02-04T14:40:38.940Z,1.71
2023-02-04T14:45:42.843Z,1.68
2023-02-04T14:50:46.526Z,1.64
2023-02-04T14:55:51.425Z,1.56
2023-02-04T15:00:54.760Z,1.61
2023-02-04T15:05:58.234Z,1.54
2023-02-04T15:11:03.245Z,1.50
2023-02-04T15:16:07.231Z,1.48
2023-02-04T15:21:11.537Z,1.55
2023-02-04T15:26:16.837Z,1.56
2023-02-04T15:31:20.637Z,1.52
2023-02-04T15:36:24.197Z,1.33
2023-02-04T15:41:29.200Z,1.35
2023-02-04T15:46:33.060Z,1.39
2023-02-04T15:51:36.742Z,1.41
2023-02-04T15:56:43.671Z,1.46
2023-02-04T16:01:48.006Z,1.34
2023-02-04T16:06:58.507Z,1.26
2023-02-04T16:12:04.264Z,1.22
2023-02-04T16:17:10.008Z,1.14
2023-02-04T16:22:13.498Z,1.14
2023-02-04T16:27:18.722Z,1.24
2023-02-04T16:32:22.731Z,1.06
2023-02-04T16:37:26.293Z,1.01
2023-02-04T16:42:31.595Z,1.13
2023-02-04T16:47:35.328Z,1.13
2023-02-04T16:52:38.655Z,1.06
2023-02-04T16:57:43.837Z,1.01
2023-02-04T17:02:47.238Z,0.88
2023-02-04T17:07:50.805Z,1.01
2023-02-04T17:12:55.538Z,0.91
2023-02-04T17:17:59.118Z,0.74
2023-02-04T17:23:02.562Z,0.84
2023-02-04T17:28:07.825Z,0.87
2023-02-04T17:33:11.428Z,0.90
2023-02-04T17:38:15.116Z,0.89
2023-02-04T17:43:19.867Z,0.92
2023-02-04T17:48:23.531Z,0.83
2023-02-04T17:53:26.900Z,0.85
2023-02-04T17:58:32.886Z,0.80
2023-02-04T18:03:36.466Z,0.70
2023-02-04T18:08:42.129Z,0.73
2023-02-04T18:13:48.684Z,0.77
2023-02-04T18:18:53.712Z,0.59
2023-02-04T18:24:06.420Z,0.67
2023-02-04T18:29:30.966Z,0.52
2023-02-04T18:34:38.788Z,0.62
2023-02-04T18:39:42.717Z,0.55
2023-02-04T18:44:47.896Z,0.57
2023-02-04T18:49:51.638Z,0.56
2023-02-04T18:54:56.067Z,0.54
2023-02-04T19:00:34.912Z,0.54
2023-02-04T19:05:44.270Z,0.49
2023-02-04T19:10:47.904Z,0.48
2023-02-04T19:16:02.505Z,0.46
2023-02-04T19:21:20.497Z,0.46
2023-02-04T19:26:30.357Z,0.46
2023-02-04T19:31:35.895Z,0.43
2023-02-04T19:36:40.233Z,0.33
2023-02-04T19:41:49.565Z,0.35
2023-02-04T19:46:55.126Z,0.32
2023-02-04T19:52:00.474Z,0.28
2023-02-04T19:57:04.069Z,0.24
2023-02-04T20:02:34.714Z,0.16
2023-02-04T20:07:39.994Z,0.21
2023-02-04T20:12:43.297Z,0.23
2023-02-04T20:17:49.240Z,0.23
2023-02-04T20:22:55.023Z,0.24
2023-02-04T20:28:09.838Z,0.27
2023-02-04T20:33:34.630Z,0.17
2023-02-04T20:38:38.186Z,0.03
2023-02-04T20:43:42.371Z,-0.04
2023-02-04T20:48:48.942Z,-0.05
2023-02-04T20:53:53.896Z,-0.04
2023-02-04T20:59:04.575Z,-0.11
2023-02-04T21:04:21.500Z,-0.12
2023-02-04T21:09:26.420Z,-0.13
2023-02-04T21:14:29.951Z,-0.14
2023-02-04T21:19:35.553Z,-0.22
2023-02-04T21:24:39.075Z,-0.27
2023-02-04T21:29:42.639Z,-0.15
2023-02-04T21:34:47.603Z,-0.03
2023-02-04T21:39:51.201Z,0.06
2023-02-04T21:44:54.601Z,0.14
2023-02-04T21:49:59.574Z,0.22
2023-02-04T21:55:02.904Z,0.16
2023-02-04T22:00:10.797Z,0.22
2023-02-04T22:05:15.674Z,0.23
2023-02-04T22:10:20.230Z,0.24
2023-02-04T22:15:24.470Z,0.08
2023-02-04T22:20:30.467Z,0.13
2023-02-04T22:25:34.307Z,0.11
2023-02-04T22:30:38.292Z,0.05
2023-02-04T22:35:43.270Z,-0.05
2023-02-04T22:40:48.788Z,-0.13
2023-02-04T22:45:51.896Z,-0.05
2023-02-04T22:50:56.972Z,-0.13
2023-02-04T22:56:00.319Z,-0.20
2023-02-04T23:01:03.966Z,-0.17
2023-02-04T23:06:09.178Z,-0.14
2023-02-04T23:11:13.288Z,-0.15
2023-02-04T23:16:16.962Z,-0.13
2023-02-04T23:21:23.207Z,-0.05
2023-02-04T23:26:26.806Z,-0.05
2023-02-04T23:31:30.394Z,-0.03
2023-02-04T23:36:36.949Z,-0.02
2023-02-04T23:41:40.519Z,-0.17
2023-02-04T23:46:44.593Z,-0.25
2023-02-04T23:51:49.688Z,-0.23
2023-02-04T23:56:54.222Z,-0.16
